Time;durP1;ratioP1;P1;durP2;ratioP2;P2;SDS_P1;SDS_P2;PMS_P1;PMS_P2;Temp;Humidity;BMP_temperature;BMP_pressure;BME280_temperature;BME280_humidity;BME280_pressure;Samples;Min_cycle;Max_cycle;Signal;HPM_P1;HPM_P2
2021/01/02 00:00:57;;;;;;;44.40;24.37;;;5.50;1.00;;;;;;5095763;28;20244;-60
2021/01/02 00:04:10;;;;;;;41.73;24.23;;;5.50;1.00;;;;;;5096707;28;20172;-60
2021/01/02 00:06:52;;;;;;;38.15;21.35;;;5.50;1.00;;;;;;5096416;28;20183;-60
2021/01/02 00:09:21;;;;;;;44.97;25.17;;;5.50;1.00;;;;;;5096571;28;20191;-60
2021/01/02 00:12:37;;;;;;;35.70;22.27;;;5.50;1.00;;;;;;5096125;28;20271;-60
2021/01/02 00:15:08;;;;;;;41.45;23.45;;;5.60;1.00;;;;;;5093859;28;20228;-60
2021/01/02 00:18:03;;;;;;;40.42;23.35;;;5.60;1.00;;;;;;5096298;28;20732;-60
2021/01/02 00:20:41;;;;;;;38.72;21.40;;;5.60;1.00;;;;;;5096172;28;20520;-59
2021/01/02 00:23:48;;;;;;;44.05;23.45;;;5.30;1.00;;;;;;5096022;28;20180;-60
2021/01/02 00:26:39;;;;;;;34.50;21.35;;;5.30;1.00;;;;;;5095714;28;20569;-59
2021/01/02 00:29:12;;;;;;;39.83;21.95;;;5.90;1.00;;;;;;5096095;28;20176;-59
2021/01/02 00:32:04;;;;;;;35.83;23.65;;;5.90;1.00;;;;;;5091636;28;20198;-59
2021/01/02 00:34:44;;;;;;;36.22;21.25;;;5.90;1.00;;;;;;5093291;28;20540;-59
2021/01/02 00:37:20;;;;;;;37.40;20.92;;;5.90;1.00;;;;;;5095360;28;20199;-59
2021/01/02 00:40:26;;;;;;;37.22;21.80;;;5.80;1.00;;;;;;5095502;28;20168;-61
2021/01/02 00:42:52;;;;;;;34.58;21.23;;;5.80;1.00;;;;;;5076363;28;20196;-61
2021/01/02 00:45:22;;;;;;;34.67;20.53;;;6.00;1.00;;;;;;5094051;28;20240;-60
2021/01/02 00:47:48;;;;;;;43.75;23.65;;;6.00;1.00;;;;;;5091145;28;20187;-60
2021/01/02 00:50:16;;;;;;;39.08;22.45;;;5.80;1.00;;;;;;5092255;28;20172;-60
2021/01/02 00:52:50;;;;;;;38.80;22.90;;;5.80;99.90;;;;;;5095636;28;20175;-60
2021/01/02 00:55:25;;;;;;;37.33;20.88;;;5.70;99.90;;;;;;5092454;28;20175;-60
2021/01/02 00:58:19;;;;;;;31.75;20.67;;;5.80;1.00;;;;;;5093826;28;20175;-60
2021/01/02 01:00:51;;;;;;;37.13;22.70;;;5.80;99.90;;;;;;5094040;28;20188;-60
2021/01/02 01:03:54;;;;;;;33.25;20.35;;;5.90;99.90;;;;;;5093345;28;20176;-60
2021/01/02 01:06:22;;;;;;;31.10;20.40;;;6.10;99.90;;;;;;5093488;28;20226;-60
2021/01/02 01:08:53;;;;;;;35.78;21.20;;;6.10;99.90;;;;;;5093585;28;20178;-60
2021/01/02 01:11:22;;;;;;;31.05;20.00;;;6.00;99.90;;;;;;5094315;28;20516;-62
2021/01/02 01:13:54;;;;;;;34.03;21.13;;;6.00;99.90;;;;;;5094283;28;20192;-60
2021/01/02 01:16:22;;;;;;;48.35;25.83;;;5.80;99.90;;;;;;5093877;28;20588;-62
2021/01/02 01:19:03;;;;;;;32.25;20.58;;;5.70;99.90;;;;;;5094187;28;20496;-62
2021/01/02 01:21:33;;;;;;;35.40;21.38;;;5.70;99.90;;;;;;5094740;28;20605;-62
2021/01/02 01:24:12;;;;;;;33.85;20.10;;;5.70;99.90;;;;;;5095053;28;20541;-62
2021/01/02 01:27:04;;;;;;;34.20;20.15;;;5.90;99.90;;;;;;5095234;28;20176;-62
2021/01/02 01:29:47;;;;;;;34.80;20.95;;;5.70;99.90;;;;;;5094854;28;20190;-62
2021/01/02 01:32:19;;;;;;;32.80;19.25;;;5.80;99.90;;;;;;5094934;28;20271;-62
2021/01/02 01:34:46;;;;;;;36.42;21.45;;;5.40;99.90;;;;;;5094571;28;20210;-62
2021/01/02 01:37:15;;;;;;;31.45;18.25;;;5.20;99.90;;;;;;5094821;28;20180;-62
2021/01/02 01:39:49;;;;;;;34.25;20.33;;;5.10;99.90;;;;;;5094651;28;20176;-63
2021/01/02 01:42:17;;;;;;;27.92;19.15;;;5.20;99.90;;;;;;5093746;28;20176;-62
2021/01/02 01:44:53;;;;;;;35.65;20.20;;;5.30;1.00;;;;;;5094565;28;20312;-62
2021/01/02 01:47:35;;;;;;;36.92;20.45;;;5.30;1.00;;;;;;5094762;28;20634;-62
2021/01/02 01:50:12;;;;;;;34.78;21.92;;;5.30;1.00;;;;;;5094777;28;20180;-62
2021/01/02 01:52:58;;;;;;;32.88;18.70;;;5.20;1.00;;;;;;5094805;28;20627;-62
2021/01/02 01:55:29;;;;;;;33.55;19.88;;;5.20;1.00;;;;;;5094280;28;20567;-62
2021/01/02 01:58:11;;;;;;;29.83;18.08;;;5.10;1.00;;;;;;5094531;28;20292;-62
2021/01/02 02:00:47;;;;;;;25.90;16.90;;;5.10;1.00;;;;;;5094147;28;20244;-62
2021/01/02 02:03:22;;;;;;;35.78;19.98;;;5.10;1.00;;;;;;5094411;28;20188;-62
2021/01/02 02:05:50;;;;;;;29.17;18.40;;;5.00;1.00;;;;;;5094241;28;20167;-62
2021/01/02 02:08:16;;;;;;;28.65;17.30;;;5.00;1.00;;;;;;5094193;28;20171;-62
2021/01/02 02:10:46;;;;;;;34.25;20.13;;;5.10;1.00;;;;;;5094206;28;20207;-62
2021/01/02 02:13:28;;;;;;;30.17;18.60;;;5.20;1.00;;;;;;5093842;28;20207;-62
2021/01/02 02:15:56;;;;;;;29.40;17.70;;;5.20;1.00;;;;;;5094135;28;20179;-62
2021/01/02 02:18:27;;;;;;;29.70;18.25;;;5.20;1.00;;;;;;5094216;28;20195;-62
2021/01/02 02:20:55;;;;;;;34.42;22.55;;;5.20;1.00;;;;;;5094124;28;20504;-62
2021/01/02 02:23:43;;;;;;;37.58;20.60;;;5.10;1.00;;;;;;5093688;28;20202;-62
2021/01/02 02:26:32;;;;;;;29.65;18.58;;;5.20;1.00;;;;;;5094061;28;20187;-62
2021/01/02 02:29:13;;;;;;;33.35;19.73;;;5.40;1.00;;;;;;5093942;28;20216;-62
2021/01/02 02:31:43;;;;;;;33.22;20.83;;;5.20;1.00;;;;;;5093869;28;20495;-62
2021/01/02 02:34:09;;;;;;;36.92;21.50;;;5.20;1.00;;;;;;5092612;28;20229;-62
2021/01/02 02:36:35;;;;;;;34.22;20.23;;;5.30;1.00;;;;;;5093885;28;20255;-62
2021/01/02 02:39:09;;;;;;;32.77;19.50;;;5.20;1.00;;;;;;5093938;28;20218;-62
2021/01/02 02:41:43;;;;;;;34.00;19.38;;;5.20;1.00;;;;;;5094218;28;20207;-62
2021/01/02 02:44:10;;;;;;;35.63;19.92;;;5.10;1.00;;;;;;5093627;28;20282;-62
2021/01/02 02:46:46;;;;;;;37.50;20.58;;;5.10;1.00;;;;;;5093750;28;20266;-62
2021/01/02 02:49:16;;;;;;;31.42;19.63;;;5.10;1.00;;;;;;5093798;28;20171;-62
2021/01/02 02:51:46;;;;;;;34.05;20.67;;;5.00;1.00;;;;;;5093577;28;20179;-62
2021/01/02 02:54:12;;;;;;;34.65;20.27;;;4.90;1.00;;;;;;5093333;28;20210;-62
2021/01/02 02:56:38;;;;;;;32.80;19.27;;;5.00;1.00;;;;;;5093553;28;20172;-62
2021/01/02 02:59:04;;;;;;;37.37;19.23;;;5.00;1.00;;;;;;5093533;28;20180;-62
2021/01/02 03:01:31;;;;;;;35.90;18.80;;;5.00;1.00;;;;;;5093513;28;20624;-62
2021/01/02 03:03:57;;;;;;;34.05;19.23;;;5.00;1.00;;;;;;5093356;28;20191;-62
2021/01/02 03:06:23;;;;;;;33.80;20.10;;;5.10;1.00;;;;;;5093559;28;20172;-62
2021/01/02 03:08:53;;;;;;;32.67;19.37;;;5.00;1.00;;;;;;5093523;28;20180;-62
2021/01/02 03:11:25;;;;;;;32.67;20.45;;;4.90;1.00;;;;;;5094006;28;20255;-62
2021/01/02 03:13:54;;;;;;;34.97;19.48;;;4.90;1.00;;;;;;5093264;28;20208;-62
2021/01/02 03:16:21;;;;;;;36.17;20.20;;;4.90;1.00;;;;;;5093456;28;20176;-61
2021/01/02 03:18:46;;;;;;;37.65;20.95;;;5.00;1.00;;;;;;5093358;28;20698;-60
2021/01/02 03:21:12;;;;;;;33.23;20.83;;;5.00;1.00;;;;;;5093356;28;20210;-60
2021/01/02 03:23:46;;;;;;;36.70;20.73;;;5.00;1.00;;;;;;5093695;28;20179;-60
2021/01/02 03:26:12;;;;;;;34.83;20.65;;;5.00;1.00;;;;;;5093346;28;20183;-60
2021/01/02 03:28:37;;;;;;;28.93;18.90;;;4.90;1.00;;;;;;5093389;28;20194;-60
2021/01/02 03:31:03;;;;;;;33.80;20.50;;;4.90;1.00;;;;;;5093392;28;20184;-60
2021/01/02 03:33:29;;;;;;;37.08;22.35;;;5.00;1.00;;;;;;5093086;28;20505;-62
2021/01/02 03:36:00;;;;;;;31.70;19.40;;;5.00;1.00;;;;;;5093348;28;20616;-62
2021/01/02 03:38:29;;;;;;;35.33;19.17;;;5.00;1.00;;;;;;5093139;28;20173;-62
2021/01/02 03:40:54;;;;;;;34.40;19.08;;;4.90;1.00;;;;;;5093340;28;20499;-60
2021/01/02 03:43:20;;;;;;;34.63;21.07;;;4.90;1.00;;;;;;5092951;28;20180;-62
2021/01/02 03:45:46;;;;;;;31.77;18.67;;;4.90;1.00;;;;;;5095228;28;20176;-60
2021/01/02 03:48:11;;;;;;;33.07;20.87;;;5.00;1.00;;;;;;5096939;28;20208;-62
2021/01/02 03:50:37;;;;;;;35.87;21.80;;;5.10;1.00;;;;;;5096996;28;20191;-62
2021/01/02 03:53:02;;;;;;;27.10;18.23;;;5.10;1.00;;;;;;5096753;28;20228;-62
2021/01/02 03:55:28;;;;;;;34.30;19.20;;;5.10;1.00;;;;;;5096843;28;20555;-62
2021/01/02 03:57:53;;;;;;;31.10;18.70;;;5.00;1.00;;;;;;5097180;28;20269;-62
2021/01/02 04:00:19;;;;;;;30.53;18.50;;;5.00;1.00;;;;;;5096693;28;20188;-62
2021/01/02 04:02:45;;;;;;;26.13;17.38;;;5.00;1.00;;;;;;5096799;28;20613;-60
2021/01/02 04:05:11;;;;;;;34.43;18.17;;;5.10;1.00;;;;;;5096540;28;20207;-60
2021/01/02 04:07:36;;;;;;;28.95;17.27;;;5.10;1.00;;;;;;5096728;28;20625;-60
2021/01/02 04:10:03;;;;;;;30.00;17.10;;;5.00;1.00;;;;;;5096566;28;20268;-60
2021/01/02 04:12:29;;;;;;;26.60;17.40;;;5.10;1.00;;;;;;5095319;28;20263;-60
2021/01/02 04:14:54;;;;;;;30.00;16.23;;;5.10;1.00;;;;;;5096217;28;20294;-60
2021/01/02 04:17:20;;;;;;;26.07;17.17;;;5.40;1.00;;;;;;5096288;28;20180;-60
2021/01/02 04:19:45;;;;;;;30.83;17.53;;;5.30;1.00;;;;;;5096328;28;20190;-60
2021/01/02 04:22:11;;;;;;;30.50;18.60;;;5.50;1.00;;;;;;5096329;28;20219;-60
2021/01/02 04:24:36;;;;;;;28.27;17.87;;;5.40;1.00;;;;;;5096096;28;20215;-60
2021/01/02 04:27:03;;;;;;;30.30;16.20;;;5.30;1.00;;;;;;5096142;28;20191;-60
2021/01/02 04:29:29;;;;;;;28.98;16.58;;;5.20;1.00;;;;;;5096256;28;20199;-62
2021/01/02 04:31:55;;;;;;;31.50;18.47;;;5.30;1.00;;;;;;5096117;28;20238;-62
2021/01/02 04:34:21;;;;;;;29.35;16.67;;;5.50;1.00;;;;;;5095739;28;20276;-62
2021/01/02 04:36:48;;;;;;;32.43;17.20;;;5.60;1.00;;;;;;5095129;28;20183;-62
2021/01/02 04:39:14;;;;;;;30.58;18.75;;;5.50;1.00;;;;;;5095965;28;20984;-62
2021/01/02 04:41:43;;;;;;;32.60;18.00;;;5.40;1.00;;;;;;5095873;28;20232;-62
2021/01/02 04:44:09;;;;;;;32.40;19.02;;;5.50;1.00;;;;;;5095640;28;20172;-62
2021/01/02 04:46:37;;;;;;;28.87;17.13;;;5.50;1.00;;;;;;5095827;28;20318;-62
2021/01/02 04:49:04;;;;;;;28.60;15.88;;;5.40;1.00;;;;;;5095697;28;20191;-62
2021/01/02 04:51:30;;;;;;;24.77;16.63;;;5.50;1.00;;;;;;5095687;28;20207;-62
2021/01/02 04:54:04;;;;;;;24.27;15.60;;;5.40;1.00;;;;;;5095444;28;20541;-62
2021/01/02 04:56:34;;;;;;;27.40;17.10;;;5.50;1.00;;;;;;5094636;28;20187;-63
2021/01/02 04:59:08;;;;;;;31.10;18.08;;;5.40;1.00;;;;;;5095412;28;20440;-62
2021/01/02 05:01:36;;;;;;;26.35;15.32;;;5.40;1.00;;;;;;5095508;28;20623;-60
2021/01/02 05:04:02;;;;;;;34.08;19.20;;;5.40;1.00;;;;;;5095464;28;20260;-60
2021/01/02 05:06:28;;;;;;;28.60;18.97;;;5.40;1.00;;;;;;5095832;28;20556;-62
2021/01/02 05:08:53;;;;;;;30.03;18.60;;;5.40;1.00;;;;;;5095411;28;20212;-62
2021/01/02 05:11:19;;;;;;;27.70;17.63;;;5.40;1.00;;;;;;5095174;28;20199;-62
2021/01/02 05:13:46;;;;;;;30.33;18.88;;;5.40;1.00;;;;;;5095003;28;20214;-62
2021/01/02 05:16:58;;;;;;;31.85;19.27;;;5.40;1.00;;;;;;5095561;28;20670;-62
2021/01/02 05:19:17;;;;;;;27.48;16.13;;;5.30;1.00;;;;;;5092134;28;20274;-62
2021/01/02 05:21:45;;;;;;;34.10;19.23;;;5.10;1.00;;;;;;5095130;28;20196;-62
2021/01/02 05:24:12;;;;;;;29.70;17.70;;;5.20;1.00;;;;;;5094844;28;20176;-62
2021/01/02 05:26:41;;;;;;;29.08;17.25;;;5.20;1.00;;;;;;5095243;28;20176;-62
2021/01/02 05:29:19;;;;;;;32.08;17.35;;;5.30;1.00;;;;;;5095058;28;20188;-62
2021/01/02 05:31:50;;;;;;;33.97;18.23;;;5.40;1.00;;;;;;5094949;28;20176;-62
2021/01/02 05:34:18;;;;;;;31.90;19.48;;;5.40;1.00;;;;;;5094421;28;20298;-62
2021/01/02 05:36:45;;;;;;;32.95;19.52;;;5.40;1.00;;;;;;5094847;28;20187;-62
2021/01/02 05:39:12;;;;;;;29.73;19.48;;;5.50;1.00;;;;;;5094732;28;20259;-62
2021/01/02 05:41:55;;;;;;;32.25;18.70;;;5.60;1.00;;;;;;5094689;28;20172;-62
2021/01/02 05:44:23;;;;;;;34.72;19.90;;;5.40;1.00;;;;;;5094634;28;20180;-62
2021/01/02 05:46:54;;;;;;;30.70;18.42;;;5.20;1.00;;;;;;5094697;28;20203;-62
2021/01/02 05:49:46;;;;;;;31.73;19.13;;;5.30;1.00;;;;;;5094701;28;20172;-62
2021/01/02 05:52:12;;;;;;;34.42;22.05;;;5.40;1.00;;;;;;5094559;28;20179;-62
2021/01/02 05:54:58;;;;;;;33.40;18.10;;;5.40;1.00;;;;;;5094207;28;20530;-62
2021/01/02 05:57:28;;;;;;;31.63;17.67;;;5.30;1.00;;;;;;5094114;28;20188;-62
2021/01/02 05:59:58;;;;;;;34.92;19.63;;;5.30;1.00;;;;;;5094222;28;20213;-62
2021/01/02 06:02:29;;;;;;;36.05;25.20;;;5.30;1.00;;;;;;5094308;28;20183;-60
2021/01/02 06:05:04;;;;;;;29.27;18.75;;;5.40;1.00;;;;;;5094158;28;20613;-62
2021/01/02 06:07:31;;;;;;;35.00;19.40;;;5.50;1.00;;;;;;5094050;28;20187;-62
2021/01/02 06:09:58;;;;;;;29.35;18.52;;;5.40;1.00;;;;;;5094140;28;20726;-62
2021/01/02 06:12:26;;;;;;;32.13;19.33;;;5.20;1.00;;;;;;5094130;28;20184;-62
2021/01/02 06:14:57;;;;;;;27.08;16.40;;;5.30;1.00;;;;;;5093833;28;20348;-62
2021/01/02 06:17:49;;;;;;;31.95;19.45;;;5.30;1.00;;;;;;5094044;28;20168;-62
2021/01/02 06:20:17;;;;;;;35.28;18.70;;;5.50;1.00;;;;;;5091824;28;20622;-62
2021/01/02 06:22:43;;;;;;;36.03;17.13;;;5.40;1.00;;;;;;5093845;28;20483;-62
2021/01/02 06:25:11;;;;;;;42.90;20.20;;;5.40;1.00;;;;;;5094470;28;20180;-62
2021/01/02 06:27:44;;;;;;;28.85;18.40;;;5.40;1.00;;;;;;5095134;28;20579;-62
2021/01/02 06:30:16;;;;;;;27.58;18.15;;;5.50;1.00;;;;;;5094759;28;20182;-60
2021/01/02 06:32:47;;;;;;;30.92;18.98;;;5.50;1.00;;;;;;5094657;28;20202;-61
2021/01/02 06:35:12;;;;;;;28.83;17.30;;;5.50;1.00;;;;;;5093454;28;20212;-60
2021/01/02 06:37:47;;;;;;;32.80;19.50;;;5.30;1.00;;;;;;5093739;28;20182;-60
2021/01/02 06:40:29;;;;;;;36.35;19.23;;;5.40;1.00;;;;;;5093689;28;20183;-61
2021/01/02 06:43:03;;;;;;;31.17;19.45;;;5.40;1.00;;;;;;5093595;28;20187;-61
2021/01/02 06:45:38;;;;;;;30.52;19.27;;;5.50;1.00;;;;;;5093558;28;20178;-60
2021/01/02 06:48:20;;;;;;;31.38;18.60;;;5.50;1.00;;;;;;5093596;28;20182;-60
2021/01/02 06:50:47;;;;;;;33.35;19.30;;;5.80;1.00;;;;;;5093564;28;20316;-61
2021/01/02 06:53:19;;;;;;;32.03;18.55;;;5.80;1.00;;;;;;5093208;28;20214;-61
2021/01/02 06:55:45;;;;;;;30.98;18.95;;;5.70;1.00;;;;;;5093563;28;20172;-60
2021/01/02 06:58:17;;;;;;;28.73;18.50;;;5.80;1.00;;;;;;5093462;28;20176;-61
2021/01/02 07:00:43;;;;;;;32.35;19.13;;;5.80;1.00;;;;;;5093398;28;20187;-61
2021/01/02 07:03:28;;;;;;;32.60;18.40;;;5.90;1.00;;;;;;5093462;28;20172;-62
2021/01/02 07:05:54;;;;;;;30.83;18.08;;;5.80;99.90;;;;;;5092609;28;20433;-62
2021/01/02 07:08:38;;;;;;;32.10;17.98;;;5.80;99.90;;;;;;5093518;28;20176;-61
2021/01/02 07:11:38;;;;;;;31.23;19.38;;;5.80;99.90;;;;;;5093458;28;20255;-61
2021/01/02 07:14:14;;;;;;;34.05;19.30;;;6.00;99.90;;;;;;5093283;28;20268;-63
2021/01/02 07:17:11;;;;;;;34.33;20.15;;;5.90;99.90;;;;;;5093482;28;20263;-62
2021/01/02 07:19:39;;;;;;;32.88;17.95;;;6.00;99.90;;;;;;5093594;28;20585;-62
2021/01/02 07:22:20;;;;;;;33.40;20.73;;;6.00;99.90;;;;;;5097424;28;20164;-62
2021/01/02 07:24:49;;;;;;;27.05;16.30;;;5.80;99.90;;;;;;5097483;28;20183;-62
2021/01/02 07:27:15;;;;;;;32.70;20.42;;;5.80;99.90;;;;;;5097228;28;20613;-62
2021/01/02 07:29:51;;;;;;;30.37;16.07;;;5.80;99.90;;;;;;5097081;28;20241;-62
2021/01/02 07:32:28;;;;;;;31.30;19.00;;;5.80;99.90;;;;;;5097176;28;20220;-61
2021/01/02 07:34:59;;;;;;;32.45;18.60;;;5.90;99.90;;;;;;5096462;28;20620;-60
2021/01/02 07:37:26;;;;;;;33.75;20.60;;;5.90;99.90;;;;;;5097012;28;20183;-60
2021/01/02 07:40:13;;;;;;;31.42;18.58;;;5.90;99.90;;;;;;5096974;28;20184;-60
2021/01/02 07:42:42;;;;;;;34.10;20.30;;;5.80;99.90;;;;;;5096835;28;20185;-60
2021/01/02 07:45:12;;;;;;;30.42;18.98;;;6.00;99.90;;;;;;5096690;28;20176;-60
2021/01/02 07:47:44;;;;;;;31.08;18.23;;;6.00;99.90;;;;;;5096767;28;20176;-60
2021/01/02 07:50:13;;;;;;;34.53;19.45;;;6.00;99.90;;;;;;5096921;28;20540;-60
2021/01/02 07:52:55;;;;;;;33.50;18.17;;;5.70;99.90;;;;;;5096930;28;20701;-60
2021/01/02 07:55:22;;;;;;;36.17;20.30;;;5.70;99.90;;;;;;5096598;28;20195;-63
2021/01/02 07:57:47;;;;;;;33.55;19.55;;;5.80;99.90;;;;;;5096669;28;20474;-60
2021/01/02 08:00:14;;;;;;;34.13;19.67;;;5.80;99.90;;;;;;5096336;28;20282;-60
2021/01/02 08:02:40;;;;;;;30.67;18.70;;;5.80;99.90;;;;;;5096563;28;20632;-64
2021/01/02 08:05:26;;;;;;;36.78;20.08;;;5.80;99.90;;;;;;5096353;28;20191;-63
2021/01/02 08:08:02;;;;;;;29.88;19.08;;;5.80;99.90;;;;;;5095957;28;20196;-63
2021/01/02 08:10:29;;;;;;;37.45;19.95;;;5.90;99.90;;;;;;5096409;28;20194;-61
2021/01/02 08:13:03;;;;;;;36.50;20.15;;;5.80;99.90;;;;;;5096307;28;20188;-61
2021/01/02 08:15:36;;;;;;;37.38;20.38;;;6.10;99.90;;;;;;5096140;28;20566;-61
2021/01/02 08:18:07;;;;;;;34.50;19.60;;;6.10;99.90;;;;;;5096223;28;20745;-61
2021/01/02 08:20:33;;;;;;;30.58;18.98;;;6.10;99.90;;;;;;5096132;28;20176;-63
2021/01/02 08:23:05;;;;;;;38.25;20.85;;;6.30;99.90;;;;;;5095900;28;20229;-63
2021/01/02 08:25:31;;;;;;;34.95;19.35;;;6.20;99.90;;;;;;5096215;28;20208;-63
2021/01/02 08:27:57;;;;;;;37.10;20.20;;;5.80;99.90;;;;;;5096182;28;20239;-63
2021/01/02 08:30:22;;;;;;;36.37;22.83;;;5.80;99.90;;;;;;5096467;28;20317;-61
2021/01/02 08:32:53;;;;;;;32.17;20.20;;;5.90;99.90;;;;;;5096005;28;20508;-61
2021/01/02 08:35:25;;;;;;;35.40;19.52;;;5.50;99.90;;;;;;5095449;28;20655;-61
2021/01/02 08:37:51;;;;;;;30.80;16.13;;;5.60;1.00;;;;;;5095132;28;20198;-61
2021/01/02 08:40:18;;;;;;;35.93;20.50;;;5.80;1.00;;;;;;5095641;28;20188;-61
2021/01/02 08:42:47;;;;;;;37.08;19.75;;;5.80;1.00;;;;;;5095523;28;20178;-61
2021/01/02 08:45:26;;;;;;;33.97;19.25;;;5.80;1.00;;;;;;5095387;28;20168;-63
2021/01/02 08:48:04;;;;;;;34.75;21.20;;;6.00;1.00;;;;;;5095549;28;20241;-63
2021/01/02 08:50:30;;;;;;;33.78;20.50;;;6.00;99.90;;;;;;5095524;28;20546;-63
2021/01/02 08:52:55;;;;;;;35.47;20.77;;;5.90;99.90;;;;;;5094318;28;20336;-62
2021/01/02 08:55:21;;;;;;;30.53;19.60;;;5.70;99.90;;;;;;5095112;28;20484;-61
2021/01/02 08:57:48;;;;;;;40.60;21.20;;;5.70;99.90;;;;;;5095470;28;20237;-62
2021/01/02 09:00:30;;;;;;;37.53;22.15;;;5.80;99.90;;;;;;5095290;28;20231;-62
2021/01/02 09:03:03;;;;;;;42.40;23.92;;;5.70;99.90;;;;;;5095636;28;20501;-62
2021/01/02 09:05:37;;;;;;;40.50;20.60;;;5.70;1.00;;;;;;5095441;28;20180;-62
2021/01/02 09:08:09;;;;;;;65.65;32.40;;;5.90;1.00;;;;;;5096204;28;20544;-62
2021/01/02 09:10:41;;;;;;;58.92;30.23;;;5.90;99.90;;;;;;5095776;28;20263;-62
2021/01/02 09:13:20;;;;;;;85.53;42.85;;;6.00;99.90;;;;;;5093824;28;20545;-60
2021/01/02 09:16:00;;;;;;;33.55;18.90;;;6.10;99.90;;;;;;5095231;28;20196;-60
2021/01/02 09:18:25;;;;;;;48.70;25.88;;;5.90;99.90;;;;;;5095289;28;20168;-60
2021/01/02 09:20:51;;;;;;;45.07;23.30;;;5.90;99.90;;;;;;5095168;28;20180;-60
2021/01/02 09:23:38;;;;;;;45.93;22.97;;;6.10;99.90;;;;;;5094743;28;20555;-60
2021/01/02 09:26:27;;;;;;;34.28;19.95;;;6.30;99.90;;;;;;5094920;28;20172;-60
2021/01/02 09:28:56;;;;;;;36.33;19.80;;;6.20;99.90;;;;;;5094763;28;20176;-60
2021/01/02 09:31:22;;;;;;;35.28;19.42;;;6.20;99.90;;;;;;5094781;28;20168;-60
2021/01/02 09:33:48;;;;;;;36.30;19.85;;;6.00;99.90;;;;;;5094916;28;20238;-60
2021/01/02 09:36:15;;;;;;;39.63;22.70;;;6.00;99.90;;;;;;5095443;28;20180;-60
2021/01/02 09:38:42;;;;;;;38.15;20.75;;;6.20;99.90;;;;;;5094919;28;20210;-61
2021/01/02 09:41:13;;;;;;;38.83;22.70;;;6.50;1.00;;;;;;5094598;28;20525;-61
2021/01/02 09:43:39;;;;;;;38.10;21.70;;;6.80;1.00;;;;;;5093737;28;20589;-61
2021/01/02 09:46:04;;;;;;;32.80;19.83;;;7.10;1.00;;;;;;5094699;28;20172;-63
2021/01/02 09:48:30;;;;;;;40.50;22.77;;;7.20;1.00;;;;;;5094240;28;20184;-62
2021/01/02 09:50:56;;;;;;;36.15;20.05;;;7.30;1.00;;;;;;5094529;28;20172;-62
2021/01/02 09:53:22;;;;;;;33.67;19.83;;;7.30;99.90;;;;;;5094138;28;20175;-63
2021/01/02 09:55:47;;;;;;;38.77;21.37;;;7.30;99.90;;;;;;5094551;28;20190;-62
2021/01/02 09:58:14;;;;;;;32.60;19.73;;;7.40;99.90;;;;;;5081249;28;20188;-64
2021/01/02 10:00:40;;;;;;;36.65;20.83;;;7.40;47.70;;;;;;5072633;28;20482;-64
2021/01/02 10:03:08;;;;;;;39.20;20.80;;;7.00;1.00;;;;;;5073417;28;20625;-63
2021/01/02 10:05:34;;;;;;;29.58;17.90;;;7.10;1.00;;;;;;5073668;28;20214;-63
2021/01/02 10:07:59;;;;;;;29.90;19.20;;;7.20;1.00;;;;;;5073723;28;20176;-63
2021/01/02 10:10:25;;;;;;;35.47;20.20;;;7.30;1.00;;;;;;5074031;28;20181;-64
2021/01/02 10:12:51;;;;;;;31.07;20.67;;;7.30;1.00;;;;;;5073513;28;20176;-63
2021/01/02 10:15:17;;;;;;;33.70;18.77;;;7.40;1.00;;;;;;5073267;28;20204;-63
2021/01/02 10:17:43;;;;;;;31.65;19.02;;;7.30;99.90;;;;;;5073586;28;20377;-63
2021/01/02 10:20:11;;;;;;;29.40;18.48;;;7.30;99.90;;;;;;5072718;28;20207;-64
2021/01/02 10:22:36;;;;;;;31.92;19.42;;;7.30;99.90;;;;;;5073571;28;20181;-65
2021/01/02 10:25:06;;;;;;;29.57;18.80;;;7.40;1.00;;;;;;5072422;28;20177;-65
2021/01/02 10:27:32;;;;;;;31.30;18.67;;;7.50;99.90;;;;;;5073708;28;20185;-65
2021/01/02 10:29:57;;;;;;;28.00;16.10;;;7.40;99.90;;;;;;5073755;28;20194;-63
2021/01/02 10:32:25;;;;;;;24.97;15.57;;;7.50;99.90;;;;;;5073346;28;20558;-64
2021/01/02 10:34:52;;;;;;;26.38;16.20;;;7.40;99.90;;;;;;5073160;28;20302;-64
2021/01/02 10:37:27;;;;;;;31.25;17.52;;;7.40;1.00;;;;;;5073832;28;20173;-62
2021/01/02 10:39:59;;;;;;;31.33;19.13;;;7.60;1.00;;;;;;5074347;28;20184;-62
2021/01/02 10:42:28;;;;;;;29.52;17.67;;;7.60;1.00;;;;;;5074838;28;20544;-64
2021/01/02 10:44:53;;;;;;;28.73;17.13;;;7.50;99.90;;;;;;5073133;28;20214;-64
2021/01/02 10:47:25;;;;;;;29.60;17.07;;;7.40;99.90;;;;;;5073910;28;20188;-63
2021/01/02 10:49:51;;;;;;;31.58;19.15;;;7.50;99.90;;;;;;5072798;28;20192;-64
2021/01/02 10:52:21;;;;;;;30.03;17.70;;;7.50;99.90;;;;;;5073433;28;20332;-63
2021/01/02 10:54:48;;;;;;;28.27;18.90;;;7.50;99.90;;;;;;5073546;28;20216;-63
2021/01/02 10:57:15;;;;;;;29.35;17.00;;;7.50;1.00;;;;;;5077385;28;20188;-63
2021/01/02 10:59:45;;;;;;;68.95;35.50;;;7.60;1.00;;;;;;5077459;28;20195;-65
2021/01/02 11:02:12;;;;;;;32.45;20.13;;;7.50;99.90;;;;;;5077725;28;20184;-65
2021/01/02 11:04:38;;;;;;;31.02;20.05;;;7.50;99.90;;;;;;5077298;28;20511;-63
2021/01/02 11:07:05;;;;;;;36.60;21.03;;;7.30;99.90;;;;;;5077434;28;20177;-62
2021/01/02 11:09:30;;;;;;;30.50;17.45;;;7.40;1.00;;;;;;5077537;28;20423;-65
2021/01/02 11:11:56;;;;;;;32.60;19.40;;;7.50;1.00;;;;;;5075950;28;20267;-60
2021/01/02 11:14:22;;;;;;;29.00;18.10;;;7.60;99.90;;;;;;5076948;28;20455;-62
2021/01/02 11:16:49;;;;;;;31.27;18.67;;;7.60;99.90;;;;;;5077447;28;20252;-62
2021/01/02 11:19:17;;;;;;;30.13;17.77;;;7.50;1.00;;;;;;5077335;28;20423;-64
2021/01/02 11:21:46;;;;;;;28.88;17.50;;;7.50;99.90;;;;;;5077361;28;20169;-63
2021/01/02 11:24:12;;;;;;;36.97;19.67;;;7.60;99.90;;;;;;5085350;28;20183;-64
2021/01/02 11:26:42;;;;;;;30.37;19.87;;;7.60;99.90;;;;;;5090488;28;20264;-61
2021/01/02 11:29:07;;;;;;;30.98;17.80;;;7.60;74.00;;;;;;5096926;28;20421;-62
2021/01/02 11:31:35;;;;;;;33.97;18.63;;;7.60;1.00;;;;;;5097009;28;20921;-61
2021/01/02 11:34:02;;;;;;;29.23;18.25;;;7.50;1.00;;;;;;5097354;28;20207;-62
2021/01/02 11:36:27;;;;;;;30.80;18.77;;;7.50;99.90;;;;;;5097067;28;20184;-66
2021/01/02 11:38:53;;;;;;;24.93;16.20;;;7.60;99.90;;;;;;5096974;28;20176;-65
2021/01/02 11:41:29;;;;;;;29.58;17.45;;;7.70;1.00;;;;;;5096982;28;20172;-62
2021/01/02 11:43:54;;;;;;;26.63;15.45;;;7.40;1.00;;;;;;5096692;28;20176;-62
2021/01/02 11:46:32;;;;;;;24.13;15.13;;;7.40;1.00;;;;;;5096928;28;20191;-64
2021/01/02 11:48:58;;;;;;;25.35;15.77;;;7.50;27.70;;;;;;5096580;28;20187;-62
2021/01/02 11:51:24;;;;;;;29.33;16.77;;;7.60;99.90;;;;;;5096253;28;20508;-62
2021/01/02 11:53:50;;;;;;;26.88;17.00;;;7.80;99.90;;;;;;5096385;28;20217;-62
2021/01/02 11:56:22;;;;;;;24.63;15.47;;;7.80;1.00;;;;;;5096697;28;20500;-62
2021/01/02 11:58:49;;;;;;;24.23;15.38;;;8.00;1.00;;;;;;5096624;28;20176;-62
2021/01/02 12:01:15;;;;;;;23.85;16.08;;;7.90;1.00;;;;;;5095831;28;20253;-62
2021/01/02 12:03:41;;;;;;;29.23;15.57;;;7.90;1.00;;;;;;5095950;28;20192;-63
2021/01/02 12:06:06;;;;;;;28.40;15.73;;;8.10;99.90;;;;;;5096021;28;20800;-63
2021/01/02 12:08:32;;;;;;;25.30;15.60;;;7.70;1.00;;;;;;5096203;28;20232;-62
2021/01/02 12:10:58;;;;;;;20.37;13.70;;;7.40;1.00;;;;;;5096754;28;20176;-64
2021/01/02 12:13:23;;;;;;;30.23;15.60;;;7.70;99.90;;;;;;5096010;28;20252;-63
2021/01/02 12:15:50;;;;;;;24.77;15.30;;;7.70;1.00;;;;;;5096504;28;20180;-63
2021/01/02 12:18:16;;;;;;;24.15;14.63;;;7.80;66.80;;;;;;5096187;28;20172;-63
2021/01/02 12:20:41;;;;;;;22.80;14.30;;;7.90;1.00;;;;;;5094502;28;20180;-65
2021/01/02 12:23:07;;;;;;;25.60;15.07;;;7.80;99.90;;;;;;5096168;28;20187;-65
2021/01/02 12:25:33;;;;;;;22.20;14.10;;;7.70;99.90;;;;;;5096332;28;20292;-60
2021/01/02 12:27:58;;;;;;;22.70;13.60;;;7.60;99.90;;;;;;5096285;28;20210;-61
2021/01/02 12:30:28;;;;;;;23.60;15.00;;;7.40;99.90;;;;;;5096977;28;20635;-61
2021/01/02 12:32:55;;;;;;;23.02;14.90;;;7.50;99.90;;;;;;5095584;28;20696;-61
2021/01/02 12:35:21;;;;;;;22.38;15.18;;;7.60;1.00;;;;;;5095226;28;20246;-61
2021/01/02 12:37:47;;;;;;;25.60;15.50;;;7.60;99.90;;;;;;5096721;28;20180;-62
2021/01/02 12:40:13;;;;;;;26.13;15.60;;;7.70;1.00;;;;;;5096637;28;20172;-62
2021/01/02 12:42:39;;;;;;;25.17;16.67;;;7.60;1.00;;;;;;5096591;28;20636;-62
2021/01/02 12:45:10;;;;;;;25.52;14.85;;;7.70;1.00;;;;;;5096439;28;20176;-62
2021/01/02 12:47:35;;;;;;;24.40;15.43;;;7.70;1.00;;;;;;5097418;28;20172;-62
2021/01/02 12:50:01;;;;;;;24.70;15.30;;;7.80;1.00;;;;;;5097048;28;20179;-64
2021/01/02 12:52:29;;;;;;;25.40;15.93;;;7.90;1.00;;;;;;5096776;28;20180;-64
2021/01/02 12:54:56;;;;;;;24.90;16.02;;;7.70;99.90;;;;;;5095934;28;20212;-64
2021/01/02 12:57:22;;;;;;;25.58;15.77;;;7.70;1.00;;;;;;5094962;28;20188;-64
2021/01/02 12:59:51;;;;;;;25.92;15.35;;;7.60;1.00;;;;;;5096715;28;20199;-62
2021/01/02 13:02:17;;;;;;;31.00;18.83;;;7.50;1.00;;;;;;5095294;28;20634;-61